createdAt,value
2017-08-03T00:00:17.921Z,25.66
2017-08-03T00:00:58.386Z,25.73
2017-08-03T00:01:38.835Z,25.58
2017-08-03T00:02:19.289Z,25.63
2017-08-03T00:02:59.772Z,25.74
2017-08-03T00:03:40.217Z,25.73
2017-08-03T00:04:20.674Z,25.63
2017-08-03T00:05:01.132Z,25.67
2017-08-03T00:05:41.591Z,25.59
2017-08-03T00:06:22.046Z,25.56
2017-08-03T00:07:02.502Z,25.61
2017-08-03T00:07:42.959Z,25.67
2017-08-03T00:08:23.526Z,25.62
2017-08-03T00:09:03.996Z,25.63
2017-08-03T00:11:02.014Z,25.7
2017-08-03T00:11:42.467Z,25.67
2017-08-03T00:12:22.916Z,25.59
2017-08-03T00:13:03.398Z,25.66
2017-08-03T00:13:43.854Z,25.63
2017-08-03T00:14:24.307Z,25.67
2017-08-03T00:15:04.752Z,25.59
2017-08-03T00:15:45.205Z,25.63
2017-08-03T00:16:25.660Z,25.59
2017-08-03T00:17:06.118Z,25.62
2017-08-03T00:17:46.572Z,25.67
2017-08-03T00:18:27.028Z,25.67
2017-08-03T00:19:07.568Z,25.62
2017-08-03T00:19:48.029Z,25.61
2017-08-03T00:20:28.483Z,25.62
2017-08-03T00:21:08.919Z,25.62
2017-08-03T00:21:49.385Z,25.62
2017-08-03T00:22:29.838Z,25.66
2017-08-03T00:23:10.291Z,25.62
2017-08-03T00:23:50.752Z,25.63
2017-08-03T00:24:31.204Z,25.68
2017-08-03T00:25:11.659Z,25.71
2017-08-03T00:25:52.121Z,25.68
2017-08-03T00:26:32.579Z,25.7
2017-08-03T00:27:13.025Z,25.68
2017-08-03T00:27:53.478Z,25.73
2017-08-03T00:28:33.931Z,25.66
2017-08-03T00:29:14.384Z,25.68
2017-08-03T00:29:54.859Z,25.73
2017-08-03T00:30:35.256Z,25.7
2017-08-03T00:31:15.718Z,25.68
2017-08-03T00:31:56.172Z,25.68
2017-08-03T00:32:36.632Z,25.74
2017-08-03T00:33:17.079Z,25.71
2017-08-03T00:33:57.537Z,25.66
2017-08-03T00:34:37.994Z,25.71
2017-08-03T00:35:18.444Z,25.7
2017-08-03T00:35:58.904Z,25.7
2017-08-03T00:36:39.458Z,25.76
2017-08-03T00:37:19.813Z,25.74
2017-08-03T00:38:00.260Z,25.67
2017-08-03T00:38:40.719Z,25.68
2017-08-03T00:39:21.173Z,25.67
2017-08-03T00:40:01.631Z,25.68
2017-08-03T00:40:42.089Z,25.59
2017-08-03T00:41:22.539Z,25.74
2017-08-03T00:42:02.985Z,25.71
2017-08-03T00:42:43.434Z,25.7
2017-08-03T00:43:23.895Z,25.73
2017-08-03T00:44:04.353Z,25.71
2017-08-03T00:44:44.805Z,25.68
2017-08-03T00:45:25.260Z,25.74
2017-08-03T00:46:05.710Z,25.74
2017-08-03T00:46:46.164Z,25.71
2017-08-03T00:47:26.621Z,25.77
2017-08-03T00:48:07.078Z,25.78
2017-08-03T00:48:47.539Z,25.74
2017-08-03T00:49:27.995Z,25.73
2017-08-03T00:50:08.456Z,25.76
2017-08-03T00:50:48.912Z,25.7
2017-08-03T00:51:29.369Z,25.71
2017-08-03T00:52:09.815Z,25.74
2017-08-03T00:52:50.280Z,25.76
2017-08-03T00:53:30.732Z,25.81
2017-08-03T00:54:11.183Z,25.77
2017-08-03T00:54:51.652Z,25.76
2017-08-03T00:55:32.110Z,25.78
2017-08-03T00:56:12.562Z,25.74
2017-08-03T00:56:53.020Z,25.76
2017-08-03T00:57:33.475Z,25.67
2017-08-03T00:58:13.944Z,25.74
2017-08-03T00:58:54.392Z,25.7
2017-08-03T00:59:34.841Z,25.73
2017-08-03T01:00:15.296Z,25.68
2017-08-03T01:00:55.744Z,25.7
2017-08-03T01:01:36.205Z,25.67
2017-08-03T01:02:16.661Z,25.76
2017-08-03T01:02:57.115Z,25.63
2017-08-03T01:03:37.569Z,25.68
2017-08-03T01:04:18.029Z,25.7
2017-08-03T01:04:58.488Z,25.59
2017-08-03T01:05:38.947Z,25.7
2017-08-03T01:06:19.413Z,25.62
2017-08-03T01:06:59.865Z,25.62
2017-08-03T01:07:40.324Z,25.67
2017-08-03T01:08:20.780Z,25.66
2017-08-03T01:09:01.225Z,25.61
2017-08-03T01:09:41.686Z,25.59
2017-08-03T01:10:22.123Z,25.62
2017-08-03T01:11:02.576Z,25.59
2017-08-03T01:11:43.029Z,25.61
2017-08-03T01:12:23.487Z,25.62
2017-08-03T01:13:03.937Z,25.62
2017-08-03T01:13:44.389Z,25.68
2017-08-03T01:14:24.860Z,25.59
2017-08-03T01:15:05.319Z,25.68
2017-08-03T01:15:45.773Z,25.59
2017-08-03T01:16:26.235Z,25.59
2017-08-03T01:17:06.701Z,25.68
2017-08-03T01:17:47.155Z,25.71
2017-08-03T01:18:27.599Z,25.77
2017-08-03T01:19:08.054Z,25.76
2017-08-03T01:19:48.500Z,25.7
2017-08-03T01:20:28.949Z,25.71
2017-08-03T01:21:09.409Z,25.76
2017-08-03T01:21:49.853Z,25.74
2017-08-03T01:22:30.308Z,25.76
2017-08-03T01:23:10.763Z,25.71
2017-08-03T01:23:51.211Z,25.7
2017-08-03T01:24:31.663Z,25.71
2017-08-03T01:25:12.124Z,25.7
2017-08-03T01:25:52.582Z,25.76
2017-08-03T01:26:33.040Z,25.62
2017-08-03T01:27:13.500Z,25.68
2017-08-03T01:27:53.956Z,25.67
2017-08-03T01:28:34.418Z,25.7
2017-08-03T01:29:14.924Z,25.71
2017-08-03T01:29:55.367Z,25.66
2017-08-03T01:30:35.813Z,25.63
2017-08-03T01:31:16.267Z,25.68
2017-08-03T01:31:56.728Z,25.62
2017-08-03T01:32:37.188Z,25.67
2017-08-03T01:33:17.641Z,25.59
2017-08-03T01:33:58.111Z,25.59
2017-08-03T01:34:38.560Z,25.59
2017-08-03T01:35:19.008Z,25.61
2017-08-03T01:35:59.462Z,25.63
2017-08-03T01:36:39.915Z,25.63
2017-08-03T01:37:20.365Z,25.66
2017-08-03T01:38:00.817Z,25.7
2017-08-03T01:38:41.264Z,25.63
2017-08-03T01:39:21.717Z,25.61
2017-08-03T01:40:02.166Z,25.62
2017-08-03T01:40:42.626Z,25.63
2017-08-03T01:41:23.078Z,25.61
2017-08-03T01:42:03.534Z,25.67
2017-08-03T01:42:43.981Z,25.59
2017-08-03T01:43:24.432Z,25.66
2017-08-03T01:44:04.869Z,25.63
2017-08-03T01:44:45.313Z,25.67
2017-08-03T01:45:25.770Z,25.62
2017-08-03T01:46:06.215Z,25.7
2017-08-03T01:46:46.691Z,25.61
2017-08-03T01:47:27.148Z,25.58
2017-08-03T01:48:07.607Z,25.68
2017-08-03T01:48:48.064Z,25.68
2017-08-03T01:49:28.519Z,25.7
2017-08-03T01:50:08.974Z,25.73
2017-08-03T01:50:49.432Z,25.74
2017-08-03T01:51:29.881Z,25.71
2017-08-03T01:52:10.354Z,25.7
2017-08-03T01:52:50.790Z,25.68
2017-08-03T01:53:31.239Z,25.7
2017-08-03T01:54:11.689Z,25.68
2017-08-03T01:54:52.146Z,25.67
2017-08-03T01:55:32.603Z,25.66
2017-08-03T01:56:13.063Z,25.7
2017-08-03T01:56:53.526Z,25.7
2017-08-03T01:57:33.980Z,25.71
2017-08-03T01:58:14.443Z,25.67
2017-08-03T01:58:54.897Z,25.67
2017-08-03T01:59:35.346Z,25.7
2017-08-03T02:00:15.801Z,25.73
2017-08-03T02:00:56.272Z,25.71
2017-08-03T02:01:36.736Z,25.73
2017-08-03T02:02:17.194Z,25.74
2017-08-03T02:02:57.647Z,25.74
2017-08-03T02:03:38.103Z,25.73
2017-08-03T02:04:18.563Z,25.78
2017-08-03T02:04:59.023Z,25.78
2017-08-03T02:05:39.503Z,25.78
2017-08-03T02:06:19.933Z,25.77
2017-08-03T02:07:00.389Z,25.73
2017-08-03T02:07:40.849Z,25.74
2017-08-03T02:08:21.309Z,25.77
2017-08-03T02:09:01.754Z,25.73
2017-08-03T02:09:42.199Z,25.77
2017-08-03T02:10:22.646Z,25.78
2017-08-03T02:11:03.097Z,25.8
2017-08-03T02:11:43.545Z,25.85
2017-08-03T02:12:24.007Z,25.74
2017-08-03T02:13:04.458Z,25.85
2017-08-03T02:13:44.925Z,25.74
2017-08-03T02:14:25.380Z,25.74
2017-08-03T02:15:05.841Z,25.76
2017-08-03T02:15:46.299Z,25.77
2017-08-03T02:16:26.750Z,25.78
2017-08-03T02:17:07.224Z,25.77
2017-08-03T02:17:47.669Z,25.71
2017-08-03T02:18:28.119Z,25.73
2017-08-03T02:19:08.585Z,25.74
2017-08-03T02:19:49.039Z,25.67
2017-08-03T02:20:29.491Z,25.71
2017-08-03T02:21:09.947Z,25.71
2017-08-03T02:21:50.399Z,25.67
2017-08-03T02:22:30.852Z,25.73
2017-08-03T02:23:11.334Z,25.74
2017-08-03T02:23:51.787Z,25.74
2017-08-03T02:24:32.262Z,25.68
2017-08-03T02:25:12.711Z,25.74
2017-08-03T02:25:53.176Z,25.73
2017-08-03T02:26:33.631Z,25.74
2017-08-03T02:27:14.082Z,25.71
2017-08-03T02:27:54.566Z,25.7
2017-08-03T02:28:35.026Z,25.73
2017-08-03T02:29:15.481Z,25.73
2017-08-03T02:29:55.943Z,25.7
2017-08-03T02:30:36.389Z,25.74
2017-08-03T02:31:16.842Z,25.77
2017-08-03T02:31:57.294Z,25.74
2017-08-03T02:32:37.745Z,25.76
2017-08-03T02:33:18.196Z,25.74
2017-08-03T02:33:58.654Z,25.71
2017-08-03T02:34:39.111Z,25.71
2017-08-03T02:35:19.564Z,25.68
2017-08-03T02:36:00.014Z,25.76
2017-08-03T02:36:40.476Z,25.67
2017-08-03T02:37:20.935Z,25.73
2017-08-03T02:38:01.390Z,25.63
2017-08-03T02:38:41.851Z,25.68
2017-08-03T02:39:22.311Z,25.62
2017-08-03T02:40:02.766Z,25.73
2017-08-03T02:40:43.225Z,25.66
2017-08-03T02:41:23.680Z,25.68
2017-08-03T02:42:04.142Z,25.62
2017-08-03T02:42:44.647Z,25.66
2017-08-03T02:43:25.121Z,25.62
2017-08-03T02:44:05.571Z,25.62
2017-08-03T02:44:46.030Z,25.63
2017-08-03T02:45:26.476Z,25.71
2017-08-03T02:46:06.927Z,25.67
2017-08-03T02:46:47.385Z,25.62
2017-08-03T02:47:27.841Z,25.55
2017-08-03T02:48:08.299Z,25.61
2017-08-03T02:48:48.759Z,25.62
2017-08-03T02:49:29.211Z,25.7
2017-08-03T02:50:09.668Z,25.61
2017-08-03T02:50:50.114Z,25.63
2017-08-03T02:51:30.573Z,25.66
2017-08-03T02:52:11.031Z,25.59
2017-08-03T02:52:51.491Z,25.59
2017-08-03T02:53:31.955Z,25.63
2017-08-03T02:54:12.411Z,25.63
2017-08-03T02:54:52.867Z,25.59
2017-08-03T02:55:33.318Z,25.59
2017-08-03T02:56:13.774Z,25.61
2017-08-03T02:56:54.231Z,25.66
2017-08-03T02:57:34.679Z,25.66
2017-08-03T02:58:15.146Z,25.67
2017-08-03T02:58:55.613Z,25.62
2017-08-03T02:59:36.062Z,25.66
2017-08-03T03:00:16.517Z,25.66
2017-08-03T03:00:56.941Z,25.66
2017-08-03T03:01:37.404Z,25.66
2017-08-03T03:02:17.858Z,25.67
2017-08-03T03:02:58.313Z,25.56
2017-08-03T03:03:38.766Z,25.66
2017-08-03T03:04:19.218Z,25.66
2017-08-03T03:04:59.665Z,25.71
2017-08-03T03:05:40.125Z,25.61
2017-08-03T03:06:20.585Z,25.56
2017-08-03T03:07:01.046Z,25.63
2017-08-03T03:07:41.504Z,25.66
2017-08-03T03:08:21.958Z,25.62
2017-08-03T03:09:02.417Z,25.67
2017-08-03T03:09:42.871Z,25.63
2017-08-03T03:10:23.334Z,25.62
2017-08-03T03:11:03.788Z,25.62
2017-08-03T03:11:44.244Z,25.67
2017-08-03T03:12:24.701Z,25.62
2017-08-03T03:13:05.159Z,25.67
2017-08-03T03:13:45.624Z,25.71
2017-08-03T03:14:26.082Z,25.67
2017-08-03T03:15:06.527Z,25.66
2017-08-03T03:15:46.987Z,25.66
2017-08-03T03:16:27.441Z,25.59
2017-08-03T03:17:07.899Z,25.62
2017-08-03T03:17:48.358Z,25.66
2017-08-03T03:18:28.813Z,25.67
2017-08-03T03:19:09.267Z,25.67
2017-08-03T03:19:49.727Z,25.68
2017-08-03T03:20:30.184Z,25.76
2017-08-03T03:21:10.634Z,25.73
2017-08-03T03:21:51.092Z,25.7
2017-08-03T03:22:31.546Z,25.71
2017-08-03T03:23:12.002Z,25.74
2017-08-03T03:23:52.444Z,25.73
2017-08-03T03:24:32.908Z,25.8
2017-08-03T03:25:13.365Z,25.83
2017-08-03T03:25:53.826Z,25.77
2017-08-03T03:26:34.288Z,25.7
2017-08-03T03:27:14.754Z,25.76
2017-08-03T03:27:55.204Z,25.86
2017-08-03T03:28:35.653Z,25.83
2017-08-03T03:29:16.112Z,25.85
2017-08-03T03:29:56.571Z,25.86
2017-08-03T03:30:37.024Z,25.81
2017-08-03T03:31:17.473Z,25.91
2017-08-03T03:31:57.945Z,25.85
2017-08-03T03:32:38.403Z,25.88
2017-08-03T03:33:18.860Z,25.89
2017-08-03T03:33:59.331Z,25.89
2017-08-03T03:34:39.796Z,25.95
2017-08-03T03:35:20.254Z,25.91
2017-08-03T03:36:00.712Z,25.96
2017-08-03T03:36:41.169Z,25.99
2017-08-03T03:37:21.633Z,25.98
2017-08-03T03:38:02.090Z,25.98
2017-08-03T03:38:42.544Z,25.99
2017-08-03T03:39:23.002Z,25.99
2017-08-03T03:40:03.467Z,26.07
2017-08-03T03:40:43.923Z,26.07
2017-08-03T03:41:24.381Z,25.99
2017-08-03T03:42:04.848Z,26.04
2017-08-03T03:42:45.314Z,26.06
2017-08-03T03:43:25.768Z,26.03
2017-08-03T03:44:06.227Z,26.1
2017-08-03T03:44:46.681Z,25.99
2017-08-03T03:45:27.138Z,25.98
2017-08-03T03:46:07.595Z,26.06
2017-08-03T03:46:48.052Z,26.1
2017-08-03T03:47:28.508Z,26.13
2017-08-03T03:48:08.961Z,25.98
2017-08-03T03:48:49.423Z,26.01
2017-08-03T03:49:29.880Z,26.01
2017-08-03T03:50:10.343Z,26.03
2017-08-03T03:50:50.799Z,26.1
2017-08-03T03:51:31.262Z,26.04
2017-08-03T03:52:11.723Z,26.04
2017-08-03T03:52:52.184Z,26.1
2017-08-03T03:53:32.644Z,26.13
2017-08-03T03:54:13.100Z,26.16
2017-08-03T03:54:53.560Z,26.06
2017-08-03T03:55:34.020Z,26.18
2017-08-03T03:56:14.472Z,26.16
2017-08-03T03:56:54.940Z,26.1
2017-08-03T03:57:35.389Z,26.18
2017-08-03T03:58:15.846Z,26.24
2017-08-03T03:58:56.302Z,26.27
2017-08-03T03:59:36.766Z,26.24
2017-08-03T04:00:17.226Z,26.23
2017-08-03T04:00:57.681Z,26.29
2017-08-03T04:01:38.131Z,26.27
2017-08-03T04:02:18.592Z,26.33
2017-08-03T04:02:59.053Z,26.3
2017-08-03T04:03:39.511Z,26.27
2017-08-03T04:04:19.973Z,26.31
2017-08-03T04:05:00.426Z,26.31
2017-08-03T04:05:40.873Z,26.34
2017-08-03T04:06:21.333Z,26.37
2017-08-03T04:07:01.806Z,26.36
2017-08-03T04:07:42.256Z,26.36
2017-08-03T04:08:22.706Z,26.44
2017-08-03T04:09:03.161Z,26.41
2017-08-03T04:09:43.644Z,26.39
2017-08-03T04:10:24.079Z,26.45
2017-08-03T04:11:04.532Z,26.44
2017-08-03T04:11:44.988Z,26.48
2017-08-03T04:12:25.449Z,26.52
2017-08-03T04:13:05.904Z,26.55
2017-08-03T04:13:46.353Z,26.55
2017-08-03T04:14:26.814Z,26.51
2017-08-03T04:15:07.290Z,26.53
2017-08-03T04:15:47.733Z,26.53
2017-08-03T04:16:28.180Z,26.56
2017-08-03T04:17:08.636Z,26.59
2017-08-03T04:17:49.092Z,26.56
2017-08-03T04:18:29.549Z,26.55
2017-08-03T04:19:10.009Z,26.56
2017-08-03T04:19:50.463Z,26.56
2017-08-03T04:20:30.915Z,26.56
2017-08-03T04:21:11.376Z,26.6
2017-08-03T04:21:51.834Z,26.61
2017-08-03T04:22:32.289Z,26.6
2017-08-03T04:23:12.747Z,26.56
2017-08-03T04:23:53.217Z,26.56
2017-08-03T04:24:33.673Z,26.64
2017-08-03T04:25:14.128Z,26.66
2017-08-03T04:25:54.593Z,26.64
2017-08-03T04:26:35.051Z,26.61
2017-08-03T04:27:15.508Z,26.61
2017-08-03T04:27:55.974Z,26.63
2017-08-03T04:28:36.429Z,26.63
2017-08-03T04:29:16.888Z,26.61
2017-08-03T04:29:57.350Z,26.68
2017-08-03T04:30:37.808Z,26.6
2017-08-03T04:31:18.264Z,26.76
2017-08-03T04:31:58.716Z,26.67
2017-08-03T04:32:39.187Z,26.61
2017-08-03T04:33:19.632Z,26.64
2017-08-03T04:34:00.088Z,26.67
2017-08-03T04:34:40.544Z,26.68
2017-08-03T04:35:21.002Z,26.68
2017-08-03T04:36:01.462Z,26.63
2017-08-03T04:36:41.951Z,26.68
2017-08-03T04:37:22.393Z,26.68
2017-08-03T04:38:02.849Z,26.64
2017-08-03T04:38:43.308Z,26.7
2017-08-03T04:39:23.770Z,26.64
2017-08-03T04:40:04.225Z,26.68
2017-08-03T04:40:44.684Z,26.66
2017-08-03T04:41:25.146Z,26.68
2017-08-03T04:42:05.604Z,26.68
2017-08-03T04:42:46.062Z,26.68
2017-08-03T04:43:26.525Z,26.68
2017-08-03T04:44:06.981Z,26.76
2017-08-03T04:44:47.427Z,26.74
2017-08-03T04:45:27.894Z,26.67
2017-08-03T04:46:08.359Z,26.73
2017-08-03T04:46:48.801Z,26.66
2017-08-03T04:47:29.263Z,26.67
2017-08-03T04:48:09.720Z,26.64
2017-08-03T04:48:50.176Z,26.68
2017-08-03T04:49:30.632Z,26.66
2017-08-03T04:50:11.092Z,26.64
2017-08-03T04:50:51.548Z,26.63
2017-08-03T04:51:32.003Z,26.64
2017-08-03T04:52:12.461Z,26.66
2017-08-03T04:52:52.920Z,26.64
2017-08-03T04:53:33.369Z,26.64
2017-08-03T04:54:13.826Z,26.7
2017-08-03T04:54:54.279Z,26.64
2017-08-03T04:55:34.736Z,26.66
2017-08-03T04:56:15.193Z,26.66
2017-08-03T04:56:55.648Z,26.68
2017-08-03T04:57:36.106Z,26.68
2017-08-03T04:58:16.564Z,26.61
2017-08-03T04:58:57.017Z,26.71
2017-08-03T04:59:37.477Z,26.73
2017-08-03T05:00:17.944Z,26.67
2017-08-03T05:00:58.401Z,26.67
2017-08-03T05:01:38.860Z,26.7
2017-08-03T05:02:19.324Z,26.67
2017-08-03T05:02:59.774Z,26.71
2017-08-03T05:03:40.232Z,26.71
2017-08-03T05:04:20.682Z,26.66
2017-08-03T05:05:01.138Z,26.66
2017-08-03T05:05:41.603Z,26.68
2017-08-03T05:06:22.056Z,26.64
2017-08-03T05:07:02.507Z,26.71
2017-08-03T05:07:42.965Z,26.61
2017-08-03T05:08:23.439Z,26.68
2017-08-03T05:09:03.873Z,26.68
2017-08-03T05:09:44.333Z,26.68
2017-08-03T05:10:24.788Z,26.7
2017-08-03T05:11:05.248Z,26.68
2017-08-03T05:11:45.704Z,26.7
2017-08-03T05:12:26.151Z,26.67
2017-08-03T05:13:06.610Z,26.68
2017-08-03T05:13:47.063Z,26.68
2017-08-03T05:14:27.532Z,26.64
2017-08-03T05:15:07.989Z,26.67
2017-08-03T05:15:48.452Z,26.66
2017-08-03T05:16:28.907Z,26.66
2017-08-03T05:17:09.360Z,26.7
2017-08-03T05:17:49.818Z,26.67
2017-08-03T05:18:30.276Z,26.71
2017-08-03T05:19:10.734Z,26.71
2017-08-03T05:19:51.191Z,26.67
2017-08-03T05:20:31.683Z,26.68
2017-08-03T05:21:12.146Z,26.68
2017-08-03T05:21:52.604Z,26.7
2017-08-03T05:22:33.060Z,26.63
2017-08-03T05:23:13.514Z,26.68
2017-08-03T05:23:53.969Z,26.63
2017-08-03T05:24:34.427Z,26.68
2017-08-03T05:25:14.879Z,26.7
2017-08-03T05:25:55.328Z,26.73
2017-08-03T05:26:35.785Z,26.7
2017-08-03T05:28:33.547Z,26.64
2017-08-03T05:29:14.001Z,26.71
2017-08-03T05:29:54.461Z,26.64
2017-08-03T05:30:34.920Z,26.63
2017-08-03T05:31:15.381Z,26.61
2017-08-03T05:31:55.840Z,26.68
2017-08-03T05:32:36.293Z,26.63
2017-08-03T05:33:16.730Z,26.64
2017-08-03T05:33:57.189Z,26.71
2017-08-03T05:34:37.649Z,26.7
2017-08-03T05:35:18.105Z,26.64
2017-08-03T05:35:58.561Z,26.63
2017-08-03T05:36:39.015Z,26.68
2017-08-03T05:37:19.470Z,26.7
2017-08-03T05:37:59.935Z,26.7
2017-08-03T05:38:40.398Z,26.6
2017-08-03T05:39:20.847Z,26.68
2017-08-03T05:40:01.305Z,26.67
2017-08-03T05:40:41.758Z,26.67
2017-08-03T05:41:22.220Z,26.66
2017-08-03T05:42:02.669Z,26.64
2017-08-03T05:42:43.129Z,26.63
2017-08-03T05:43:23.653Z,26.7
2017-08-03T05:44:04.074Z,26.7
2017-08-03T05:44:44.552Z,26.67
2017-08-03T05:45:25.015Z,26.7
2017-08-03T05:46:05.525Z,26.68
2017-08-03T05:46:45.910Z,26.67
2017-08-03T05:47:26.356Z,26.61
2017-08-03T05:48:06.815Z,26.7
2017-08-03T05:48:47.270Z,26.61
2017-08-03T05:49:27.760Z,26.64
2017-08-03T05:50:08.210Z,26.67
2017-08-03T05:50:48.664Z,26.63
2017-08-03T05:51:29.121Z,26.71
2017-08-03T05:52:09.578Z,26.6
2017-08-03T05:52:50.025Z,26.7
2017-08-03T05:53:30.474Z,26.67
2017-08-03T05:54:10.929Z,26.7
2017-08-03T05:54:51.398Z,26.64
2017-08-03T05:55:31.854Z,26.66
2017-08-03T05:56:12.305Z,26.68
2017-08-03T05:56:52.764Z,26.7
2017-08-03T05:57:33.219Z,26.7
2017-08-03T05:58:13.676Z,26.73
2017-08-03T05:58:54.132Z,26.7
2017-08-03T05:59:34.588Z,26.73
2017-08-03T06:00:15.038Z,26.66
2017-08-03T06:00:55.492Z,26.67
2017-08-03T06:01:35.972Z,26.7
2017-08-03T06:02:16.415Z,26.64
2017-08-03T06:02:56.872Z,26.67
2017-08-03T06:03:37.327Z,26.64
2017-08-03T06:04:17.782Z,26.68
2017-08-03T06:04:58.239Z,26.7
2017-08-03T06:05:38.694Z,26.7
2017-08-03T06:06:19.150Z,26.68
2017-08-03T06:06:59.605Z,26.61
2017-08-03T06:07:40.059Z,26.71
2017-08-03T06:08:20.512Z,26.7
2017-08-03T06:09:00.966Z,26.67
2017-08-03T06:09:41.421Z,26.73
2017-08-03T06:10:21.879Z,26.7
2017-08-03T06:11:02.348Z,26.66
2017-08-03T06:11:42.805Z,26.66
2017-08-03T06:12:23.261Z,26.66
2017-08-03T06:13:03.714Z,26.66
2017-08-03T06:13:44.171Z,26.59
2017-08-03T06:14:24.630Z,26.66
2017-08-03T06:15:05.081Z,26.7
2017-08-03T06:15:45.538Z,26.74
2017-08-03T06:16:25.996Z,26.68
2017-08-03T06:17:06.454Z,26.64
2017-08-03T06:17:46.908Z,26.61
2017-08-03T06:18:27.395Z,26.67
2017-08-03T06:19:07.844Z,26.67
2017-08-03T06:19:48.299Z,26.64
2017-08-03T06:20:28.755Z,26.68
2017-08-03T06:21:09.195Z,26.68
2017-08-03T06:21:49.656Z,26.7
2017-08-03T06:22:30.112Z,26.68
2017-08-03T06:23:10.566Z,26.64
2017-08-03T06:23:51.025Z,26.68
2017-08-03T06:24:31.483Z,26.63
2017-08-03T06:25:11.941Z,26.67
2017-08-03T06:25:52.399Z,26.66
2017-08-03T06:26:32.848Z,26.73
2017-08-03T06:27:13.305Z,26.7
2017-08-03T06:27:53.770Z,26.61
2017-08-03T06:28:34.224Z,26.67
2017-08-03T06:29:14.680Z,26.67
2017-08-03T06:29:55.148Z,26.64
2017-08-03T06:30:35.608Z,26.67
2017-08-03T06:31:16.057Z,26.67
2017-08-03T06:31:56.519Z,26.64
2017-08-03T06:32:36.986Z,26.67
2017-08-03T06:33:17.437Z,26.68
2017-08-03T06:33:57.911Z,26.66
2017-08-03T06:34:38.359Z,26.64
2017-08-03T06:35:18.813Z,26.7
2017-08-03T06:35:59.266Z,26.73
2017-08-03T06:36:39.729Z,26.64
2017-08-03T06:37:20.184Z,26.68
2017-08-03T06:38:00.640Z,26.66
2017-08-03T06:38:41.087Z,26.61
2017-08-03T06:39:21.545Z,26.68
2017-08-03T06:40:02.001Z,26.68
2017-08-03T06:40:42.460Z,26.7
2017-08-03T06:41:23.169Z,26.67
2017-08-03T06:42:03.386Z,26.64
2017-08-03T06:42:43.843Z,26.71
2017-08-03T06:43:24.300Z,26.68
2017-08-03T06:44:04.755Z,26.64
2017-08-03T06:44:45.217Z,26.67
2017-08-03T06:45:25.668Z,26.6
2017-08-03T06:46:06.112Z,26.67
2017-08-03T06:46:46.600Z,26.67
2017-08-03T06:47:27.057Z,26.7
2017-08-03T06:48:07.509Z,26.66
2017-08-03T06:48:47.965Z,26.66
2017-08-03T06:49:28.418Z,26.61
2017-08-03T06:50:08.867Z,26.73
2017-08-03T06:50:49.328Z,26.66
2017-08-03T06:51:29.785Z,26.6
2017-08-03T06:52:10.237Z,26.61
2017-08-03T06:52:50.685Z,26.61
2017-08-03T06:53:31.142Z,26.66
2017-08-03T06:54:11.585Z,26.61
2017-08-03T06:54:52.055Z,26.64
2017-08-03T06:55:32.514Z,26.63
2017-08-03T06:56:12.972Z,26.76
2017-08-03T06:56:53.427Z,26.61
2017-08-03T06:57:33.887Z,26.61
2017-08-03T06:58:14.339Z,26.7
2017-08-03T06:58:54.812Z,26.66
2017-08-03T06:59:35.261Z,26.63
2017-08-03T07:00:15.715Z,26.63
2017-08-03T07:00:56.162Z,26.6
2017-08-03T07:01:36.621Z,26.61
2017-08-03T07:02:17.081Z,26.53
2017-08-03T07:02:57.529Z,26.61
2017-08-03T07:03:37.978Z,26.63
2017-08-03T07:04:18.440Z,26.64
2017-08-03T07:04:58.898Z,26.68
2017-08-03T07:05:39.358Z,26.59
2017-08-03T07:06:19.823Z,26.67
2017-08-03T07:07:00.279Z,26.59
2017-08-03T07:07:40.723Z,26.6
2017-08-03T07:08:21.184Z,26.66
2017-08-03T07:09:01.638Z,26.66
2017-08-03T07:09:42.083Z,26.59
2017-08-03T07:10:22.546Z,26.67
2017-08-03T07:11:02.999Z,26.63
2017-08-03T07:11:43.460Z,26.55
2017-08-03T07:12:23.903Z,26.66
2017-08-03T07:13:04.358Z,26.68
2017-08-03T07:13:44.812Z,26.71
2017-08-03T07:14:25.274Z,26.74
2017-08-03T07:16:17.962Z,26.67
2017-08-03T07:16:58.424Z,26.7
2017-08-03T07:17:38.882Z,26.64
2017-08-03T07:18:19.338Z,26.66
2017-08-03T07:18:59.796Z,26.61
2017-08-03T07:19:40.247Z,26.68
2017-08-03T07:20:20.707Z,26.68
2017-08-03T07:21:01.166Z,26.68
2017-08-03T07:21:41.626Z,26.64
2017-08-03T07:22:22.082Z,26.66
2017-08-03T07:23:02.535Z,26.67
2017-08-03T07:23:43.029Z,26.61
2017-08-03T07:24:23.489Z,26.64
2017-08-03T07:25:03.944Z,26.67
2017-08-03T07:25:44.470Z,26.63
2017-08-03T07:26:24.917Z,26.68
2017-08-03T07:27:05.357Z,26.7
2017-08-03T07:28:52.974Z,26.67
2017-08-03T07:29:33.424Z,26.66
2017-08-03T07:30:13.885Z,26.66
2017-08-03T07:30:54.344Z,26.64
2017-08-03T07:31:34.810Z,26.64
2017-08-03T07:32:15.254Z,26.66
2017-08-03T07:32:55.710Z,26.7
2017-08-03T07:33:36.161Z,26.68
2017-08-03T07:34:16.617Z,26.7
2017-08-03T07:34:57.071Z,26.74
2017-08-03T07:35:37.519Z,26.66
2017-08-03T07:36:17.970Z,26.7
2017-08-03T07:36:58.423Z,26.68
2017-08-03T07:37:38.874Z,26.63
2017-08-03T07:38:19.331Z,26.64
2017-08-03T07:38:59.785Z,26.71
2017-08-03T07:39:40.234Z,26.63
2017-08-03T07:40:20.704Z,26.66
2017-08-03T07:41:01.164Z,26.64
2017-08-03T07:41:41.669Z,26.68
2017-08-03T07:42:22.131Z,26.63
2017-08-03T07:43:02.582Z,26.68
2017-08-03T07:43:43.033Z,26.64
2017-08-03T07:44:23.495Z,26.63
2017-08-03T07:45:03.954Z,26.63
2017-08-03T07:45:44.725Z,26.63
2017-08-03T07:46:25.354Z,26.67
2017-08-03T07:47:05.829Z,26.71
2017-08-03T07:47:46.280Z,26.68
2017-08-03T07:48:26.937Z,26.68
2017-08-03T07:49:07.413Z,26.68
2017-08-03T07:49:47.872Z,26.7
2017-08-03T07:50:28.312Z,26.66
2017-08-03T07:51:08.767Z,26.66
2017-08-03T07:51:49.232Z,26.74
2017-08-03T07:52:29.722Z,26.66
2017-08-03T07:53:10.149Z,26.73
2017-08-03T07:53:50.605Z,26.66
2017-08-03T07:54:31.056Z,26.71
2017-08-03T07:55:11.501Z,26.64
2017-08-03T07:55:51.958Z,26.71
2017-08-03T07:56:32.417Z,26.68
2017-08-03T07:57:13.215Z,26.68
2017-08-03T07:57:53.614Z,26.74
2017-08-03T07:58:34.051Z,26.66
2017-08-03T07:59:14.507Z,26.74
2017-08-03T07:59:54.959Z,26.67
2017-08-03T08:00:35.412Z,26.68
2017-08-03T08:01:15.871Z,26.67
2017-08-03T08:01:56.326Z,26.67
2017-08-03T08:02:36.784Z,26.64
2017-08-03T08:03:17.235Z,26.7
2017-08-03T08:03:57.689Z,26.64
2017-08-03T08:04:38.146Z,26.66
2017-08-03T08:05:18.602Z,26.71
2017-08-03T08:05:59.059Z,26.67
2017-08-03T08:06:39.501Z,26.64
2017-08-03T08:07:19.954Z,26.66
2017-08-03T08:08:00.412Z,26.67
2017-08-03T08:08:40.871Z,26.67
2017-08-03T08:09:21.330Z,26.7
2017-08-03T08:10:01.782Z,26.64
2017-08-03T08:10:42.229Z,26.68
2017-08-03T08:11:22.698Z,26.73
2017-08-03T08:12:03.379Z,26.67
2017-08-03T08:12:43.608Z,26.78
2017-08-03T08:13:24.058Z,26.67
2017-08-03T08:14:04.667Z,26.66
2017-08-03T08:14:45.136Z,26.66
2017-08-03T08:15:25.588Z,26.67
2017-08-03T08:16:06.048Z,26.71
2017-08-03T08:16:46.499Z,26.68
2017-08-03T08:17:26.956Z,26.74
2017-08-03T08:18:07.409Z,26.7
2017-08-03T08:18:47.876Z,26.68
2017-08-03T08:19:28.308Z,26.67
2017-08-03T08:20:08.770Z,26.78
2017-08-03T08:20:49.225Z,26.68
2017-08-03T08:21:29.672Z,26.68
2017-08-03T08:22:10.128Z,26.7
2017-08-03T08:22:50.575Z,26.79
2017-08-03T08:23:31.024Z,26.66
2017-08-03T08:24:11.474Z,26.68
2017-08-03T08:24:52.016Z,26.61
2017-08-03T08:25:32.465Z,26.64
2017-08-03T08:26:12.931Z,26.66
2017-08-03T08:26:53.388Z,26.7
2017-08-03T08:27:33.843Z,26.61
2017-08-03T08:28:14.306Z,26.63
2017-08-03T08:28:54.775Z,26.68
2017-08-03T08:29:35.224Z,26.7
2017-08-03T08:31:27.913Z,26.64
2017-08-03T08:32:08.358Z,26.68
2017-08-03T08:32:48.809Z,26.78
2017-08-03T08:33:29.261Z,26.7
2017-08-03T08:34:09.734Z,26.66
2017-08-03T08:34:50.263Z,26.66
2017-08-03T08:35:30.697Z,26.68
2017-08-03T08:36:11.156Z,26.68
2017-08-03T08:36:51.607Z,26.78
2017-08-03T08:37:32.061Z,26.67
2017-08-03T08:38:12.510Z,26.66
2017-08-03T08:38:52.976Z,26.68
2017-08-03T08:39:33.430Z,26.64
2017-08-03T08:40:13.888Z,26.68
2017-08-03T08:40:54.332Z,26.7
2017-08-03T08:41:34.773Z,26.66
2017-08-03T08:42:15.220Z,26.73
2017-08-03T08:42:55.676Z,26.64
2017-08-03T08:43:36.131Z,26.67
2017-08-03T08:44:16.593Z,26.67
2017-08-03T08:44:57.049Z,26.67
2017-08-03T08:45:37.496Z,26.66
2017-08-03T08:46:17.948Z,26.66
2017-08-03T08:46:58.416Z,26.64
2017-08-03T08:47:38.864Z,26.67
2017-08-03T08:48:19.314Z,26.73
2017-08-03T08:48:59.768Z,26.67